Time;durP1;ratioP1;P1;durP2;ratioP2;P2;SDS_P1;SDS_P2;PMS_P1;PMS_P2;Temp;Humidity;BMP_temperature;BMP_pressure;BME280_temperature;BME280_humidity;BME280_pressure;Samples;Min_cycle;Max_cycle;Signal;HPM_P1;HPM_P2
2022/07/11 00:01:01;;;;;;;;;3.00;3.00;;;;;22.99;44.23;101721.06;5089372;28;44988;-83
2022/07/11 00:03:28;;;;;;;;;2.25;2.25;;;;;22.97;43.96;101721.06;5091015;28;45497;-83
2022/07/11 00:05:53;;;;;;;;;2.75;2.50;;;;;22.90;44.38;101713.91;5075024;28;45426;-85
2022/07/11 00:08:18;;;;;;;;;3.00;3.00;;;;;22.84;44.39;101708.53;5074707;28;45115;-84
2022/07/11 00:10:44;;;;;;;;;2.75;2.00;;;;;22.89;44.80;101721.06;5093410;28;45148;-81
2022/07/11 00:13:09;;;;;;;;;2.00;2.00;;;;;22.85;44.30;101721.03;5093972;28;45362;-82
2022/07/11 00:15:34;;;;;;;;;3.00;2.00;;;;;22.82;44.70;101721.94;5094269;28;45091;-83
2022/07/11 00:18:00;;;;;;;;;2.50;2.50;;;;;22.71;44.46;101702.31;5093145;27;45138;-82
2022/07/11 00:20:25;;;;;;;;;2.00;2.00;;;;;22.73;44.52;101711.22;5074832;28;45058;-83
2022/07/11 00:22:51;;;;;;;;;2.50;2.50;;;;;22.81;44.47;101721.97;5091960;28;45404;-82
2022/07/11 00:25:16;;;;;;;;;2.25;2.25;;;;;22.78;44.66;101719.25;5091967;28;45178;-83
2022/07/11 00:27:41;;;;;;;;;2.25;2.25;;;;;22.71;44.43;101709.41;5092297;27;46618;-84
2022/07/11 00:30:07;;;;;;;;;2.25;2.25;;;;;22.51;44.63;101677.25;5092729;27;44981;-81
2022/07/11 00:32:33;;;;;;;;;2.50;2.50;;;;;22.73;44.83;101719.25;5092634;28;45591;-85
2022/07/11 00:34:58;;;;;;;;;2.25;2.25;;;;;22.73;45.08;101719.25;5093583;27;48220;-83
2022/07/11 00:37:23;;;;;;;;;2.00;2.00;;;;;22.51;44.78;101696.94;5093974;28;45111;-84
2022/07/11 00:39:49;;;;;;;;;2.00;2.00;;;;;22.69;45.11;101736.22;5093437;28;45190;-82
2022/07/11 00:42:17;;;;;;;;;2.00;2.00;;;;;22.50;45.09;101697.81;5091513;28;48970;-83
2022/07/11 00:44:42;;;;;;;;;1.75;1.75;;;;;22.58;45.07;101701.38;5093768;27;45466;-82
2022/07/11 00:47:07;;;;;;;;;2.00;2.00;;;;;22.39;45.08;101679.03;5091866;28;45043;-84
2022/07/11 00:49:33;;;;;;;;;2.00;2.00;;;;;22.49;45.22;101698.69;5093886;27;45076;-84
2022/07/11 00:51:58;;;;;;;;;2.75;2.75;;;;;22.36;45.26;101673.72;5090187;27;47618;-85
2022/07/11 00:54:25;;;;;;;;;3.00;3.00;;;;;22.54;45.23;101704.06;5092805;27;44936;-82
2022/07/11 00:56:50;;;;;;;;;2.25;2.25;;;;;22.48;45.26;101699.59;5093152;28;45004;-84
2022/07/11 00:59:18;;;;;;;;;2.00;2.00;;;;;22.44;45.71;101692.44;5092772;27;45595;-84
2022/07/11 01:01:44;;;;;;;;;2.50;2.50;;;;;22.29;45.77;101669.22;5092585;28;46068;-82
2022/07/11 01:04:09;;;;;;;;;2.50;2.50;;;;;22.36;45.72;101686.19;5090883;28;45389;-84
2022/07/11 01:06:35;;;;;;;;;2.00;2.00;;;;;22.18;45.72;101659.41;5093875;27;44940;-82
2022/07/11 01:09:00;;;;;;;;;2.00;2.00;;;;;22.39;45.84;101700.47;5074228;28;45027;-83
2022/07/11 01:11:26;;;;;;;;;2.00;2.00;;;;;22.09;45.93;101641.50;5090471;28;45640;-83
2022/07/11 01:13:51;;;;;;;;;3.00;3.00;;;;;22.24;46.29;101670.09;5093244;27;45072;-82
2022/07/11 01:16:19;;;;;;;;;2.00;2.00;;;;;22.35;46.00;101693.31;5091756;27;45162;-84
2022/07/11 01:18:46;;;;;;;;;2.25;2.25;;;;;22.27;46.33;101695.13;5092155;28;45306;-83
2022/07/11 01:21:32;;;;;;;;;3.00;3.00;;;;;22.12;46.07;101666.53;5093443;28;45873;-82
2022/07/11 01:24:00;;;;;;;;;2.00;2.00;;;;;22.20;45.89;101679.03;5091315;28;45585;-82
2022/07/11 01:26:27;;;;;;;;;2.00;2.00;;;;;22.18;46.11;101680.81;5090657;28;45081;-84
2022/07/11 01:28:53;;;;;;;;;2.00;2.00;;;;;22.17;46.38;101679.94;5093002;28;44989;-84
2022/07/11 01:31:19;;;;;;;;;1.50;1.50;;;;;22.00;46.08;101658.41;5092869;28;45182;-84
2022/07/11 01:33:45;;;;;;;;;2.00;2.00;;;;;22.08;46.22;101672.72;5092803;27;45458;-83
2022/07/11 01:36:12;;;;;;;;;2.25;2.00;;;;;22.04;46.51;101667.38;5071853;28;45563;-84
2022/07/11 01:38:38;;;;;;;;;3.00;3.00;;;;;22.07;46.62;101681.66;5072564;28;45188;-82
2022/07/11 01:41:04;;;;;;;;;1.25;1.25;;;;;21.83;46.70;101642.34;5091249;27;45616;-82
2022/07/11 01:43:29;;;;;;;;;1.75;1.75;;;;;21.98;46.28;101670.94;5092807;27;45040;-82
2022/07/11 01:45:56;;;;;;;;;3.00;3.00;;;;;22.09;46.50;101693.25;5074464;28;45060;-81
2022/07/11 01:48:21;;;;;;;;;2.00;2.00;;;;;22.09;46.71;101695.03;5074593;28;45085;-82
2022/07/11 01:50:48;;;;;;;;;2.25;2.25;;;;;22.06;46.91;101697.69;5090828;27;45362;-82
2022/07/11 01:53:14;;;;;;;;;2.00;2.00;;;;;21.90;46.80;101662.84;5090532;28;45514;-82
2022/07/11 01:55:40;;;;;;;;;3.00;3.00;;;;;21.97;46.85;101677.19;5092144;28;44989;-81
2022/07/11 01:58:05;;;;;;;;;2.50;2.50;;;;;21.83;47.01;101665.53;5086304;28;45115;-82
2022/07/11 02:00:31;;;;;;;;;2.00;2.00;;;;;22.04;47.09;101694.13;5070380;28;47072;-81
2022/07/11 02:02:56;;;;;;;;;3.00;3.00;;;;;22.01;46.68;101695.00;5073746;28;45273;-82
2022/07/11 02:05:22;;;;;;;;;2.00;2.00;;;;;21.84;47.43;101673.56;5090738;27;44965;-82
2022/07/11 02:10:31;;;;;;;;;3.00;3.00;;;;;21.90;47.89;101704.78;5092681;28;45395;-82
2022/07/11 02:12:58;;;;;;;;;3.25;3.25;;;;;21.69;47.98;101677.97;5092256;28;44985;-81
2022/07/11 02:15:27;;;;;;;;;2.00;2.00;;;;;21.41;48.11;101640.38;5073897;28;45080;-82
2022/07/11 02:17:52;;;;;;;;;2.50;2.50;;;;;21.65;47.81;101701.13;5092054;28;45112;-81
2022/07/11 02:20:19;;;;;;;;;3.00;3.00;;;;;21.63;48.24;101705.59;5091175;28;45901;-82
2022/07/11 02:22:44;;;;;;;;;3.00;3.00;;;;;21.59;48.19;101696.66;5092103;28;45189;-83
2022/07/11 02:25:10;;;;;;;;;2.25;2.00;;;;;21.58;48.18;101704.69;5090580;28;45186;-82
2022/07/11 02:27:35;;;;;;;;;2.00;2.00;;;;;21.38;48.48;101669.81;5091267;28;44997;-81
2022/07/11 02:30:00;;;;;;;;;2.50;2.50;;;;;21.45;48.18;101676.97;5092228;27;45185;-82
2022/07/11 02:32:26;;;;;;;;;2.00;2.00;;;;;21.54;48.40;101703.75;5091102;27;45252;-84
2022/07/11 02:34:51;;;;;;;;;1.00;1.00;;;;;21.43;48.97;101699.22;5091526;27;45056;-84
2022/07/11 02:37:16;;;;;;;;;2.00;2.00;;;;;21.41;48.90;101696.56;5073660;28;48781;-82
2022/07/11 02:39:42;;;;;;;;;2.00;2.00;;;;;21.06;48.93;101658.91;5091864;28;46867;-81
2022/07/11 02:42:07;;;;;;;;;2.00;2.00;;;;;21.26;49.42;101701.78;5071893;28;45197;-82
2022/07/11 02:44:32;;;;;;;;;2.75;2.75;;;;;21.18;49.57;101701.75;5074097;28;44978;-82
2022/07/11 02:46:57;;;;;;;;;3.00;3.00;;;;;21.02;49.92;101675.78;5090459;27;45039;-84
2022/07/11 02:49:23;;;;;;;;;2.75;2.75;;;;;20.93;49.61;101673.06;5089946;28;47226;-82
2022/07/11 02:51:48;;;;;;;;;3.00;3.00;;;;;20.80;50.06;101664.97;5090438;28;44944;-82
2022/07/11 02:54:14;;;;;;;;;3.00;3.00;;;;;20.99;50.04;101700.75;5073909;28;45144;-83
2022/07/11 02:56:39;;;;;;;;;3.00;3.00;;;;;20.83;50.24;101677.44;5071244;28;45134;-82
2022/07/11 02:59:04;;;;;;;;;2.25;2.25;;;;;20.84;50.09;101682.81;5072798;28;46095;-82
2022/07/11 03:01:30;;;;;;;;;3.00;3.00;;;;;20.84;50.25;101685.50;5091438;28;45001;-82
2022/07/11 03:03:55;;;;;;;;;2.00;2.00;;;;;20.91;50.54;101702.44;5091880;27;45261;-82
2022/07/11 03:06:20;;;;;;;;;2.50;2.00;;;;;20.75;50.38;101673.84;5072948;28;45235;-82
2022/07/11 03:08:47;;;;;;;;;4.00;3.25;;;;;20.70;50.57;101657.75;5090195;28;45998;-84
2022/07/11 03:11:12;;;;;;;;;2.00;2.00;;;;;20.72;50.53;101665.78;5091872;28;45186;-83
2022/07/11 03:13:37;;;;;;;;;2.00;2.00;;;;;20.77;50.75;101669.38;5091518;27;45078;-82
2022/07/11 03:16:03;;;;;;;;;3.25;3.00;;;;;20.82;50.49;101687.22;5091896;28;45003;-82
2022/07/11 03:18:28;;;;;;;;;3.00;2.75;;;;;20.59;50.36;101652.34;5071754;28;47418;-84
2022/07/11 03:20:54;;;;;;;;;3.50;3.00;;;;;20.66;51.00;101671.09;5089640;28;45116;-84
2022/07/11 03:23:19;;;;;;;;;2.25;2.25;;;;;20.73;50.94;101683.59;5091315;28;45000;-82
2022/07/11 03:25:44;;;;;;;;;2.00;2.00;;;;;20.43;51.10;101645.03;5090458;28;45247;-85
2022/07/11 03:28:10;;;;;;;;;3.00;2.00;;;;;20.52;51.35;101655.84;5089528;28;45677;-82
2022/07/11 03:30:35;;;;;;;;;2.25;2.25;;;;;20.54;51.00;101670.13;5089669;28;44888;-82
2022/07/11 03:33:00;;;;;;;;;2.67;2.67;;;;;20.59;51.55;101684.41;5089428;28;46938;-81
2022/07/11 03:35:41;;;;;;;;;3.00;3.00;;;;;20.47;51.50;101667.38;5091313;27;45340;-82
2022/07/11 03:38:06;;;;;;;;;4.00;3.75;;;;;20.44;51.15;101665.50;5090748;28;45830;-81
2022/07/11 03:40:32;;;;;;;;;3.00;3.00;;;;;20.53;51.59;101678.97;5071782;28;45500;-81
2022/07/11 03:42:57;;;;;;;;;4.00;4.00;;;;;20.61;51.80;101697.75;5088785;28;45396;-81
2022/07/11 03:45:22;;;;;;;;;4.25;4.00;;;;;20.34;51.42;101642.28;5091126;28;45148;-82
2022/07/11 03:47:48;;;;;;;;;4.00;3.00;;;;;20.58;51.55;101677.25;5085680;28;45942;-82
2022/07/11 03:50:14;;;;;;;;;3.00;3.00;;;;;20.55;51.85;101674.56;5090564;27;45072;-82
2022/07/11 03:52:40;;;;;;;;;4.75;4.00;;;;;20.58;51.67;101679.03;5071749;28;45008;-82
2022/07/11 03:55:05;;;;;;;;;3.00;3.00;;;;;20.70;51.38;101694.28;5091171;28;44876;-82
2022/07/11 03:57:31;;;;;;;;;3.00;3.00;;;;;20.59;51.60;101681.72;5087377;27;45420;-82
2022/07/11 03:59:56;;;;;;;;;4.25;3.00;;;;;20.60;51.63;101688.84;5091337;28;44938;-81
2022/07/11 04:02:21;;;;;;;;;4.25;4.00;;;;;20.42;51.79;101653.94;5089913;28;45119;-82
2022/07/11 04:04:47;;;;;;;;;3.00;3.00;;;;;20.58;51.95;101692.38;5090750;28;45291;-82
2022/07/11 04:07:13;;;;;;;;;3.00;2.25;;;;;20.40;52.05;101666.38;5089611;28;45714;-81
2022/07/11 04:09:38;;;;;;;;;4.00;4.00;;;;;20.47;52.02;101683.38;5071474;28;45167;-82
2022/07/11 04:12:04;;;;;;;;;3.00;3.00;;;;;20.30;52.33;101661.84;5090193;28;44988;-82
2022/07/11 04:14:29;;;;;;;;;4.00;3.25;;;;;20.46;52.31;101695.81;5090605;28;45204;-83
2022/07/11 04:16:54;;;;;;;;;3.50;3.50;;;;;20.17;52.54;101647.47;5090009;28;45733;-82
2022/07/11 04:19:20;;;;;;;;;4.00;4.00;;;;;20.30;52.70;101678.75;5089979;28;45335;-82
2022/07/11 04:21:45;;;;;;;;;4.00;4.00;;;;;20.29;52.85;101665.38;5072441;28;45074;-83
2022/07/11 04:24:10;;;;;;;;;4.00;4.00;;;;;20.17;52.68;101633.25;5087171;28;50508;-82
2022/07/11 04:26:35;;;;;;;;;5.00;5.00;;;;;20.41;52.77;101668.16;5090308;28;47398;-81
2022/07/11 04:29:02;;;;;;;;;4.00;3.00;;;;;20.49;52.82;101684.28;5090922;27;45070;-84
2022/07/11 04:31:27;;;;;;;;;4.00;4.00;;;;;20.29;53.04;101649.34;5090520;28;45563;-82
2022/07/11 04:33:52;;;;;;;;;4.00;4.00;;;;;20.42;52.58;101682.41;5094043;28;44974;-81
2022/07/11 04:36:18;;;;;;;;;4.50;4.00;;;;;20.29;52.88;101652.03;5075668;28;47053;-84
2022/07/11 04:38:44;;;;;;;;;4.00;4.00;;;;;20.39;52.80;101671.69;5093400;27;45178;-81
2022/07/11 04:41:09;;;;;;;;;4.00;3.00;;;;;20.27;53.42;101653.81;5093592;28;45162;-81
2022/07/11 04:43:36;;;;;;;;;4.00;4.00;;;;;20.14;52.72;101631.41;5057304;28;45389;-84
2022/07/11 04:46:04;;;;;;;;;4.00;4.00;;;;;20.43;52.58;101685.09;5052808;28;45828;-84
2022/07/11 04:48:30;;;;;;;;;5.00;5.00;;;;;20.53;53.59;101705.69;5050454;28;45223;-82
2022/07/11 04:50:57;;;;;;;;;5.00;4.50;;;;;20.48;52.59;101695.84;5050725;28;45323;-83
2022/07/11 04:53:22;;;;;;;;;4.00;4.00;;;;;20.59;52.88;101708.44;5052354;28;45076;-82
2022/07/11 04:55:48;;;;;;;;;3.75;3.75;;;;;20.58;52.55;101700.38;5053131;28;45962;-82
2022/07/11 04:58:13;;;;;;;;;4.25;4.25;;;;;20.72;52.32;101708.53;5052847;28;48815;-82
2022/07/11 05:00:38;;;;;;;;;3.00;3.00;;;;;20.79;51.96;101715.72;5052287;28;44997;-82
2022/07/11 05:03:04;;;;;;;;;3.00;3.00;;;;;20.66;52.29;101677.31;5050923;28;44951;-82
2022/07/11 05:05:30;;;;;;;;;3.75;3.75;;;;;20.54;52.20;101651.41;5050281;28;47665;-84
2022/07/11 05:07:56;;;;;;;;;4.25;4.25;;;;;20.95;52.04;101717.63;5067209;28;45462;-81
2022/07/11 05:10:21;;;;;;;;;4.25;4.00;;;;;20.91;51.84;101705.13;5068756;28;45076;-84
2022/07/11 05:12:46;;;;;;;;;3.00;3.00;;;;;20.94;51.61;101705.16;5068555;28;45604;-82
2022/07/11 05:15:12;;;;;;;;;3.75;3.75;;;;;20.99;51.46;101716.78;5066833;28;46455;-82
2022/07/11 05:17:38;;;;;;;;;3.00;3.00;;;;;21.03;51.74;101707.91;5052152;28;44919;-83
2022/07/11 05:20:04;;;;;;;;;2.50;2.50;;;;;21.15;51.95;101720.44;5049986;28;44920;-82
2022/07/11 05:22:30;;;;;;;;;3.00;3.00;;;;;21.13;51.90;101712.41;5052544;28;44983;-83
2022/07/11 05:24:55;;;;;;;;;2.00;2.00;;;;;21.08;51.61;101703.47;5049715;28;46071;-82
2022/07/11 05:27:20;;;;;;;;;4.00;4.00;;;;;21.29;51.73;101734.81;5052149;28;44934;-82
2022/07/11 05:29:46;;;;;;;;;5.00;5.00;;;;;21.21;51.96;101716.91;5065588;28;45391;-83
2022/07/11 05:32:11;;;;;;;;;4.75;4.75;;;;;21.31;51.23;101722.34;5047025;28;45434;-82
2022/07/11 05:34:37;;;;;;;;;4.00;4.00;;;;;21.28;50.81;101716.06;5051645;28;45565;-82
2022/07/11 05:37:03;;;;;;;;;3.50;3.00;;;;;21.43;50.96;101740.28;5050736;28;45405;-82
2022/07/11 05:39:28;;;;;;;;;4.50;4.00;;;;;21.32;50.86;101713.44;5049961;28;45505;-83
2022/07/11 05:41:54;;;;;;;;;2.50;2.50;;;;;21.36;50.90;101717.94;5053145;28;44986;-82
2022/07/11 05:44:19;;;;;;;;;4.75;4.75;;;;;21.33;50.65;101704.56;5092799;27;46137;-82
2022/07/11 05:46:45;;;;;;;;;4.00;4.00;;;;;21.50;50.33;101727.81;5091878;28;44952;-82
2022/07/11 05:49:10;;;;;;;;;3.75;3.50;;;;;21.60;51.14;101733.22;5091532;28;45303;-82
2022/07/11 05:51:38;;;;;;;;;3.75;3.75;;;;;21.47;50.51;101704.59;5087357;28;45136;-81
2022/07/11 05:54:04;;;;;;;;;3.00;3.00;;;;;21.61;50.73;101729.66;5089524;28;45237;-83
2022/07/11 05:56:30;;;;;;;;;4.25;4.25;;;;;21.43;50.93;101678.75;5073482;28;45017;-84
2022/07/11 05:58:56;;;;;;;;;5.00;4.00;;;;;21.75;51.23;101726.16;5093078;27;45808;-82
2022/07/11 06:01:22;;;;;;;;;3.25;3.00;;;;;21.81;50.89;101735.09;5091425;28;45307;-82
2022/07/11 06:03:48;;;;;;;;;3.75;3.00;;;;;21.69;50.69;101708.28;5092550;28;45178;-82
2022/07/11 06:06:13;;;;;;;;;3.00;3.00;;;;;21.92;51.29;101743.19;5091975;28;45455;-83
2022/07/11 06:08:42;;;;;;;;;3.00;3.00;;;;;21.82;50.77;101723.53;5092598;28;44987;-83
2022/07/11 06:11:15;;;;;;;;;4.75;4.25;;;;;21.81;51.13;101716.34;5091341;28;44941;-83
2022/07/11 06:13:42;;;;;;;;;2.25;2.25;;;;;22.02;50.08;101744.09;5090737;28;45167;-82
2022/07/11 06:16:08;;;;;;;;;3.00;3.00;;;;;21.93;49.70;101722.66;5090869;28;45570;-83
2022/07/11 06:18:38;;;;;;;;;3.00;3.00;;;;;21.98;50.50;101724.47;5091920;27;44983;-83
2022/07/11 06:21:05;;;;;;;;;3.00;2.00;;;;;22.09;50.10;101736.09;5092133;28;45036;-82
2022/07/11 06:23:31;;;;;;;;;2.00;2.00;;;;;22.07;49.76;101718.25;5089541;28;46409;-83
2022/07/11 06:25:57;;;;;;;;;2.25;2.00;;;;;22.25;49.66;101745.09;5088562;28;45368;-83
2022/07/11 06:28:23;;;;;;;;;3.00;3.00;;;;;22.15;49.53;101719.19;5089937;28;45271;-83
2022/07/11 06:30:49;;;;;;;;;2.00;2.00;;;;;22.33;49.92;101740.66;5090675;28;45204;-83
2022/07/11 06:33:18;;;;;;;;;2.00;2.00;;;;;22.23;49.73;101722.78;5088688;27;46433;-83
2022/07/11 06:35:44;;;;;;;;;3.00;3.00;;;;;22.33;50.06;101729.94;5089559;28;45406;-84
2022/07/11 06:38:10;;;;;;;;;2.00;2.00;;;;;22.24;49.64;101703.13;5088973;27;45012;-82
2022/07/11 06:40:36;;;;;;;;;3.00;2.00;;;;;22.27;49.28;101710.28;5090122;28;44867;-84
2022/07/11 06:43:01;;;;;;;;;2.25;2.25;;;;;22.35;48.76;101724.56;5088782;28;46038;-82
2022/07/11 06:45:27;;;;;;;;;3.00;3.00;;;;;22.50;48.88;101745.13;5089784;28;44977;-84
2022/07/11 06:47:53;;;;;;;;;2.50;2.50;;;;;22.45;48.96;101731.72;5073482;28;45030;-82
2022/07/11 06:50:19;;;;;;;;;4.00;3.00;;;;;22.44;49.33;101719.25;5071990;28;44942;-82
2022/07/11 06:52:46;;;;;;;;;3.00;3.00;;;;;22.53;49.62;101729.09;5090462;27;45123;-82
2022/07/11 06:55:11;;;;;;;;;2.00;2.00;;;;;22.53;48.99;101721.94;5090388;28;45318;-84
2022/07/11 06:57:37;;;;;;;;;2.00;2.00;;;;;22.59;48.98;101718.34;5089898;28;45134;-85
2022/07/11 07:00:03;;;;;;;;;3.00;3.00;;;;;22.56;48.63;101713.91;5090748;28;45728;-83
2022/07/11 07:02:30;;;;;;;;;3.00;3.00;;;;;22.58;48.90;101713.91;5072660;28;46312;-83
2022/07/11 07:04:58;;;;;;;;;2.00;2.00;;;;;22.78;48.69;101735.34;5091680;28;45036;-81
2022/07/11 07:07:24;;;;;;;;;2.50;2.00;;;;;22.77;48.48;101725.53;5072215;28;45229;-83
2022/07/11 07:09:49;;;;;;;;;2.00;1.75;;;;;22.66;48.26;101710.34;5090940;28;44997;-82
2022/07/11 07:12:14;;;;;;;;;2.50;2.50;;;;;22.77;48.68;101720.16;5089706;27;46033;-83
2022/07/11 07:14:40;;;;;;;;;2.00;2.00;;;;;22.60;48.12;101687.97;5091541;28;45404;-83
2022/07/11 07:17:06;;;;;;;;;2.00;2.00;;;;;22.92;48.71;101733.59;5091112;28;45084;-82
2022/07/11 07:19:31;;;;;;;;;2.00;2.00;;;;;22.91;48.62;101727.34;5088125;28;45355;-83
2022/07/11 07:21:56;;;;;;;;;2.00;2.00;;;;;22.86;48.28;101713.00;5070986;28;50353;-85
2022/07/11 07:24:22;;;;;;;;;2.00;2.00;;;;;22.90;48.17;101720.16;5091503;28;44898;-81
2022/07/11 07:26:47;;;;;;;;;3.00;3.00;;;;;22.93;48.32;101721.97;5091672;28;45052;-82
2022/07/11 07:29:12;;;;;;;;;2.50;2.00;;;;;22.90;47.96;101711.22;5088731;28;45522;-82
2022/07/11 07:31:38;;;;;;;;;4.00;3.00;;;;;22.97;47.85;101723.75;5088490;28;45756;-83
2022/07/11 07:34:04;;;;;;;;;4.00;3.25;;;;;22.98;47.71;101721.97;5090876;28;45044;-83
2022/07/11 07:36:30;;;;;;;;;2.00;2.00;;;;;23.00;47.53;101714.81;5090024;28;45062;-84
2022/07/11 07:38:55;;;;;;;;;3.75;3.00;;;;;22.87;48.13;101689.78;5092276;27;45240;-83
2022/07/11 07:41:20;;;;;;;;;2.50;2.25;;;;;22.92;47.79;101694.28;5090044;27;45998;-84
2022/07/11 07:43:48;;;;;;;;;1.00;1.00;;;;;23.10;47.53;101717.50;5090091;28;45034;-83
2022/07/11 07:46:14;;;;;;;;;3.00;3.00;;;;;23.09;47.33;101707.63;5091119;28;45508;-83
2022/07/11 07:48:39;;;;;;;;;1.50;1.50;;;;;23.05;47.55;101695.13;5087870;28;45203;-82
2022/07/11 07:51:05;;;;;;;;;2.50;2.00;;;;;23.25;47.49;101730.00;5090349;27;46523;-84
2022/07/11 07:53:30;;;;;;;;;1.25;1.25;;;;;23.29;47.34;101731.75;5089872;28;45394;-82
2022/07/11 07:55:55;;;;;;;;;1.25;1.25;;;;;23.15;47.27;101699.59;5071036;28;45280;-83
2022/07/11 07:58:21;;;;;;;;;2.00;2.00;;;;;23.44;47.57;101741.53;5090136;28;44950;-84
2022/07/11 08:03:33;;;;;;;;;1.00;1.00;;;;;23.35;46.30;101704.00;5088936;27;45057;-83
2022/07/11 08:05:58;;;;;;;;;3.00;3.00;;;;;23.30;46.86;101692.38;5092496;28;45177;-82
2022/07/11 08:08:24;;;;;;;;;2.00;2.00;;;;;23.49;47.08;101714.69;5093633;28;45103;-84
2022/07/11 08:10:50;;;;;;;;;2.00;2.00;;;;;23.55;47.02;101722.75;5092627;27;45320;-83
2022/07/11 08:13:16;;;;;;;;;1.25;1.25;;;;;23.59;47.16;101730.75;5094119;28;45462;-83
2022/07/11 08:15:41;;;;;;;;;2.00;1.75;;;;;23.67;46.96;101733.47;5093783;28;44910;-82
2022/07/11 08:18:07;;;;;;;;;3.00;3.00;;;;;23.72;47.01;101741.50;5093803;28;45000;-82
2022/07/11 08:20:32;;;;;;;;;3.25;2.25;;;;;23.61;47.08;101709.31;5093319;28;46058;-82
2022/07/11 08:23:05;;;;;;;;;3.00;2.25;;;;;23.73;47.01;101722.69;5072798;28;45286;-84
2022/07/11 08:25:30;;;;;;;;;1.25;1.25;;;;;23.85;46.52;101728.03;5093931;28;45071;-83
2022/07/11 08:27:56;;;;;;;;;2.00;2.00;;;;;23.78;46.63;101718.19;5075688;28;45017;-82
2022/07/11 08:30:21;;;;;;;;;1.00;1.00;;;;;23.80;46.82;101702.09;5075611;28;47409;-84
2022/07/11 08:32:47;;;;;;;;;1.00;1.00;;;;;23.87;47.25;101707.41;5092269;28;45067;-84
2022/07/11 08:35:14;;;;;;;;;2.50;2.00;;;;;23.85;46.75;101695.81;5093313;28;45101;-82
2022/07/11 08:37:39;;;;;;;;;2.50;2.50;;;;;23.91;46.24;101684.13;5094192;27;45228;-83
2022/07/11 08:40:05;;;;;;;;;3.25;3.00;;;;;23.98;46.06;101696.63;5092036;27;47607;-84
2022/07/11 08:42:31;;;;;;;;;1.75;1.75;;;;;23.97;46.02;101689.47;5074683;28;45190;-83
2022/07/11 08:44:57;;;;;;;;;2.25;2.25;;;;;23.78;45.58;101651.09;5093153;28;45194;-84
2022/07/11 08:47:24;;;;;;;;;2.25;2.25;;;;;23.87;46.19;101672.50;5074792;28;45290;-84
2022/07/11 08:49:51;;;;;;;;;2.00;2.00;;;;;24.04;46.83;101691.25;5092755;28;45513;-83
2022/07/11 08:52:19;;;;;;;;;2.00;2.00;;;;;24.05;46.29;101686.75;5091352;28;45163;-82
2022/07/11 08:54:44;;;;;;;;;2.00;2.00;;;;;24.11;46.04;101687.59;5075063;28;44860;-82
2022/07/11 08:57:10;;;;;;;;;2.00;2.00;;;;;24.07;46.60;101667.03;5074974;28;45145;-82
2022/07/11 08:59:41;;;;;;;;;2.00;2.00;;;;;24.14;45.74;101670.59;5093393;28;45181;-82
2022/07/11 09:02:08;;;;;;;;;2.25;2.00;;;;;24.14;45.63;101663.41;5093292;28;45433;-82
2022/07/11 09:04:34;;;;;;;;;2.00;2.00;;;;;24.13;45.35;101666.97;5088863;28;45151;-82
2022/07/11 09:07:01;;;;;;;;;2.00;2.00;;;;;24.14;45.20;101659.84;5072901;28;45287;-82
2022/07/11 09:09:27;;;;;;;;;2.00;2.00;;;;;24.29;45.83;101681.22;5075088;28;47396;-83
2022/07/11 09:11:55;;;;;;;;;2.00;2.00;;;;;24.27;45.08;101671.38;5074131;28;45052;-82
2022/07/11 09:14:29;;;;;;;;;2.00;2.00;;;;;24.37;45.49;101687.44;5074151;27;44981;-82
2022/07/11 09:17:06;;;;;;;;;2.00;2.00;;;;;24.45;45.16;101698.16;5074529;28;45020;-82
2022/07/11 09:19:33;;;;;;;;;2.00;2.00;;;;;24.44;45.62;101686.50;5092090;28;46667;-82
2022/07/11 09:27:56;;;;;;;;;3.00;3.00;;;;;24.46;45.58;101651.56;5091661;28;44931;-82
2022/07/11 09:30:35;;;;;;;;;3.00;3.00;;;;;24.62;45.58;101671.13;5074870;28;47974;-82
2022/07/11 09:33:01;;;;;;;;;3.75;3.75;;;;;24.69;45.13;101680.94;5068105;28;45433;-82
2022/07/11 09:35:45;;;;;;;;;2.00;2.00;;;;;24.66;45.42;101670.19;5075090;28;45049;-82
2022/07/11 09:38:13;;;;;;;;;2.00;2.00;;;;;24.72;45.13;101672.81;5091219;28;45208;-82
2022/07/11 09:40:42;;;;;;;;;2.75;2.75;;;;;24.79;45.48;101674.56;5088580;27;45774;-82
2022/07/11 09:43:08;;;;;;;;;2.50;2.50;;;;;24.75;44.98;101656.69;5092327;28;45001;-82
2022/07/11 09:45:35;;;;;;;;;3.00;3.00;;;;;24.87;45.85;101674.47;5093080;28;44969;-83
2022/07/11 09:48:07;;;;;;;;;2.25;2.00;;;;;24.86;45.05;101661.94;5090467;28;45590;-83
2022/07/11 09:50:33;;;;;;;;;3.25;3.00;;;;;24.77;44.70;101638.72;5089933;28;47120;-84
2022/07/11 09:53:05;;;;;;;;;2.00;2.00;;;;;24.96;44.55;101663.63;5092887;28;45161;-82
2022/07/11 09:55:34;;;;;;;;;1.25;1.25;;;;;24.89;44.64;101648.47;5073784;28;45239;-82
2022/07/11 09:58:03;;;;;;;;;3.00;3.00;;;;;24.99;44.79;101665.41;5074360;28;45294;-83
2022/07/11 10:00:29;;;;;;;;;1.75;1.75;;;;;25.03;44.42;101664.47;5092365;28;45245;-83
2022/07/11 10:02:56;;;;;;;;;2.50;2.00;;;;;25.16;44.35;101666.16;5090644;28;45340;-82
2022/07/11 10:05:21;;;;;;;;;2.00;2.00;;;;;25.01;44.36;101628.63;5091672;27;45161;-82
2022/07/11 10:07:47;;;;;;;;;2.25;2.00;;;;;25.18;44.48;101656.28;5090802;28;44985;-84
2022/07/11 10:10:12;;;;;;;;;3.00;3.00;;;;;25.02;44.52;101627.69;5091193;28;45258;-82
2022/07/11 10:12:37;;;;;;;;;2.00;2.00;;;;;25.25;44.14;101649.91;5091469;28;45156;-83
2022/07/11 10:15:09;;;;;;;;;2.00;2.00;;;;;25.27;44.14;101636.41;5092196;28;45076;-83
2022/07/11 10:17:53;;;;;;;;;2.00;2.00;;;;;25.45;43.73;101655.94;5091403;28;45210;-82
2022/07/11 10:20:32;;;;;;;;;2.25;2.25;;;;;25.50;43.73;101658.56;5088804;28;46229;-84
2022/07/11 10:23:19;;;;;;;;;3.00;3.00;;;;;25.52;43.90;101656.75;5091905;27;45548;-82
2022/07/11 10:26:06;;;;;;;;;2.00;2.00;;;;;25.58;44.04;101662.06;5092563;28;45107;-84
2022/07/11 10:28:47;;;;;;;;;2.50;2.50;;;;;25.51;43.62;101646.88;5071426;28;45260;-82
2022/07/11 10:31:23;;;;;;;;;2.25;2.25;;;;;25.63;43.43;101644.03;5071852;28;47516;-82
2022/07/11 10:34:18;;;;;;;;;3.00;2.00;;;;;25.76;43.51;101657.38;5072602;28;45129;-82
2022/07/11 10:36:44;;;;;;;;;2.50;2.50;;;;;25.80;43.40;101651.03;5090260;27;45166;-82
2022/07/11 10:39:29;;;;;;;;;3.00;3.00;;;;;25.87;43.96;101663.50;5073699;28;45017;-83
2022/07/11 10:41:56;;;;;;;;;2.00;2.00;;;;;25.94;43.47;101651.72;5091497;27;45648;-83
2022/07/11 10:44:22;;;;;;;;;3.00;3.00;;;;;25.93;43.13;101645.44;5092614;28;45094;-83
2022/07/11 10:46:47;;;;;;;;;2.00;2.00;;;;;25.97;43.26;101649.00;5071657;28;45048;-83
2022/07/11 10:49:13;;;;;;;;;2.50;2.50;;;;;26.10;43.38;101661.34;5086933;27;45454;-84
2022/07/11 10:51:59;;;;;;;;;3.00;2.00;;;;;26.17;43.13;101660.38;5072652;28;47458;-83
2022/07/11 10:54:48;;;;;;;;;3.50;3.00;;;;;26.27;43.16;101665.63;5071052;28;45718;-84
2022/07/11 10:57:21;;;;;;;;;8.25;8.00;;;;;26.33;42.79;101660.13;5088388;28;45039;-83
2022/07/11 10:59:59;;;;;;;;;45.00;38.50;;;;;26.40;42.34;101668.09;5088908;28;44993;-83
2022/07/11 11:02:28;;;;;;;;;77.00;68.50;;;;;26.34;42.32;101653.81;5089215;28;45889;-83
2022/07/11 11:04:58;;;;;;;;;7.25;7.00;;;;;26.24;42.93;101623.41;5071420;28;45253;-84
2022/07/11 11:07:44;;;;;;;;;7.00;7.00;;;;;26.45;42.23;101650.06;5072113;28;44959;-83
2022/07/11 11:10:18;;;;;;;;;16.50;16.25;;;;;26.54;42.19;101662.47;5088942;28;45131;-82
2022/07/11 11:13:07;;;;;;;;;4.75;4.75;;;;;26.53;42.27;101649.94;5091267;28;45677;-83
2022/07/11 11:15:33;;;;;;;;;4.25;4.25;;;;;26.65;42.09;101660.50;5078321;28;45016;-83
2022/07/11 11:18:24;;;;;;;;;3.75;2.00;;;;;26.61;42.03;101639.03;5072026;28;45045;-84
2022/07/11 11:21:09;;;;;;;;;2.25;2.25;;;;;26.74;42.55;101652.22;5088508;28;45418;-83
2022/07/11 11:23:37;;;;;;;;;2.00;2.00;;;;;26.72;41.90;101634.31;5091268;28;46024;-83
2022/07/11 11:26:07;;;;;;;;;2.00;2.00;;;;;26.71;42.01;101619.94;5088122;28;45177;-83
2022/07/11 11:28:33;;;;;;;;;2.25;2.00;;;;;26.89;41.78;101642.09;5090220;28;45474;-83
2022/07/11 11:31:01;;;;;;;;;2.00;2.00;;;;;26.92;41.83;101631.25;5091066;27;44964;-83
2022/07/11 11:33:29;;;;;;;;;1.00;1.00;;;;;26.87;41.98;101611.56;5071120;28;47729;-83
2022/07/11 11:36:01;;;;;;;;;2.25;2.25;;;;;26.98;41.70;101623.91;5091095;28;45224;-83